createdAt,value
2023-09-06T00:03:30.036Z,17.33
2023-09-06T00:08:34.529Z,17.28
2023-09-06T00:13:36.310Z,17.08
2023-09-06T00:18:37.889Z,17.08
2023-09-06T00:23:40.835Z,17.13
2023-09-06T00:28:41.735Z,17.19
2023-09-06T00:33:42.944Z,17.19
2023-09-06T00:38:43.752Z,17.23
2023-09-06T00:43:44.614Z,17.33
2023-09-06T00:48:50.579Z,17.14
2023-09-06T00:53:51.924Z,16.79
2023-09-06T00:58:53.158Z,16.52
2023-09-06T01:03:54.057Z,16.47
2023-09-06T01:08:59.521Z,16.74
2023-09-06T01:14:00.460Z,16.72
2023-09-06T01:19:02.176Z,16.68
2023-09-06T01:24:05.733Z,16.64
2023-09-06T01:29:06.781Z,16.61
2023-09-06T01:34:07.682Z,16.51
2023-09-06T01:39:09.218Z,16.41
2023-09-06T01:44:10.066Z,16.38
2023-09-06T01:49:11.051Z,16.13
2023-09-06T01:54:11.902Z,16.07
2023-09-06T01:59:12.953Z,16.03
2023-09-06T02:04:13.845Z,15.84
2023-09-06T02:09:14.729Z,15.80
2023-09-06T02:14:15.530Z,15.81
2023-09-06T02:19:17.370Z,15.68
2023-09-06T02:24:18.793Z,15.70
2023-09-06T02:29:19.786Z,15.61
2023-09-06T02:34:21.075Z,15.46
2023-09-06T02:39:21.901Z,15.45
2023-09-06T02:44:24.113Z,15.37
2023-09-06T02:49:26.783Z,15.30
2023-09-06T02:54:27.970Z,15.26
2023-09-06T02:59:29.795Z,15.18
2023-09-06T03:04:35.729Z,15.23
2023-09-06T03:09:39.623Z,15.24
2023-09-06T03:14:44.869Z,15.10
2023-09-06T03:19:47.445Z,15.04
2023-09-06T03:24:48.809Z,15.03
2023-09-06T03:29:51.482Z,15.00
2023-09-06T03:34:55.296Z,14.87
2023-09-06T03:39:56.175Z,14.75
2023-09-06T03:44:57.025Z,14.70
2023-09-06T03:49:59.929Z,14.75
2023-09-06T03:55:03.255Z,14.58
2023-09-06T04:00:23.394Z,14.55
2023-09-06T04:05:26.208Z,14.46
2023-09-06T04:10:35.645Z,14.41
2023-09-06T04:15:38.647Z,14.26
2023-09-06T04:20:47.192Z,14.23
2023-09-06T04:25:50.174Z,14.38
2023-09-06T04:30:54.516Z,14.32
2023-09-06T04:35:58.030Z,14.28
2023-09-06T04:40:59.347Z,14.14
2023-09-06T04:46:02.192Z,14.17
2023-09-06T04:51:05.462Z,14.30
2023-09-06T04:56:06.569Z,14.21
2023-09-06T05:01:13.090Z,14.24
2023-09-06T05:06:14.636Z,14.22
2023-09-06T05:11:16.296Z,14.29
2023-09-06T05:16:17.522Z,14.79
2023-09-06T05:21:18.652Z,15.07
2023-09-06T05:26:20.990Z,15.28
2023-09-06T05:31:22.525Z,15.45
2023-09-06T05:36:24.717Z,15.70
2023-09-06T05:41:25.576Z,15.78
2023-09-06T05:46:32.944Z,15.91
2023-09-06T05:51:40.628Z,16.12
2023-09-06T05:56:41.922Z,16.44
2023-09-06T06:01:44.599Z,16.39
2023-09-06T06:06:45.558Z,16.44
2023-09-06T06:11:46.660Z,16.58
2023-09-06T06:16:47.547Z,16.83
2023-09-06T06:21:48.613Z,17.21
2023-09-06T06:26:50.243Z,17.48
2023-09-06T06:31:51.584Z,17.70
2023-09-06T06:36:52.381Z,17.94
2023-09-06T06:41:53.191Z,18.12
2023-09-06T06:46:54.263Z,18.10
2023-09-06T06:51:55.146Z,18.22
2023-09-06T06:56:56.102Z,18.26
2023-09-06T07:01:57.168Z,18.39
2023-09-06T07:06:58.346Z,18.49
2023-09-06T07:11:59.215Z,18.72
2023-09-06T07:17:00.198Z,18.85
2023-09-06T07:22:01.741Z,19.03
2023-09-06T07:27:02.971Z,18.99
2023-09-06T07:32:04.102Z,19.27
2023-09-06T07:37:04.938Z,19.57
2023-09-06T07:42:05.789Z,19.72
2023-09-06T07:47:06.772Z,19.90
2023-09-06T07:52:08.955Z,19.74
2023-09-06T07:57:09.729Z,19.64
2023-09-06T08:02:10.949Z,19.70
2023-09-06T08:07:11.750Z,19.73
2023-09-06T08:12:13.250Z,19.60
2023-09-06T08:17:14.048Z,19.34
2023-09-06T08:22:14.956Z,19.47
2023-09-06T08:27:15.760Z,19.81
2023-09-06T08:32:16.921Z,20.19
2023-09-06T08:37:17.915Z,20.20
2023-09-06T08:42:21.111Z,20.37
2023-09-06T08:47:22.422Z,20.36
2023-09-06T08:52:23.596Z,20.72
2023-09-06T08:57:27.221Z,20.65
2023-09-06T09:02:28.516Z,20.82
2023-09-06T09:07:31.104Z,20.66
2023-09-06T09:12:32.254Z,20.84
2023-09-06T09:17:40.244Z,20.83
2023-09-06T09:22:50.956Z,20.95
2023-09-06T09:27:56.234Z,20.86
2023-09-06T09:33:02.053Z,21.32
2023-09-06T09:38:05.224Z,21.61
2023-09-06T09:43:06.104Z,21.51
2023-09-06T09:48:08.258Z,21.77
2023-09-06T09:53:20.620Z,21.99
2023-09-06T09:58:38.046Z,22.11
2023-09-06T10:03:39.539Z,22.79
2023-09-06T10:08:44.140Z,23.18
2023-09-06T10:13:48.378Z,22.93
2023-09-06T10:18:49.311Z,23.03
2023-09-06T10:23:51.207Z,22.96
2023-09-06T10:28:58.610Z,22.79
2023-09-06T10:34:00.148Z,23.27
2023-09-06T10:39:14.529Z,23.33
2023-09-06T10:44:15.378Z,22.91
2023-09-06T10:49:22.958Z,22.87
2023-09-06T10:54:45.814Z,23.46
2023-09-06T10:59:59.053Z,23.71
2023-09-06T11:05:06.047Z,23.87
2023-09-06T11:10:07.473Z,23.37
2023-09-06T11:15:10.341Z,23.98
2023-09-06T11:20:13.321Z,23.73
2023-09-06T11:25:22.640Z,24.00
2023-09-06T11:30:24.175Z,24.19
2023-09-06T11:35:37.974Z,24.09
2023-09-06T11:40:39.950Z,24.31
2023-09-06T11:45:43.518Z,24.75
2023-09-06T11:50:46.825Z,24.46
2023-09-06T11:55:50.702Z,23.97
2023-09-06T12:00:51.767Z,24.19
2023-09-06T12:05:55.545Z,24.26
2023-09-06T12:11:08.417Z,24.46
2023-09-06T12:16:11.812Z,24.38
2023-09-06T12:21:12.685Z,24.75
2023-09-06T12:26:15.806Z,24.73
2023-09-06T12:31:17.857Z,25.03
2023-09-06T12:36:19.639Z,25.13
2023-09-06T12:41:20.645Z,25.09
2023-09-06T12:46:21.824Z,25.51
2023-09-06T12:51:22.759Z,25.39
2023-09-06T12:56:23.603Z,24.98
2023-09-06T13:01:24.452Z,25.75
2023-09-06T13:06:25.556Z,25.49
2023-09-06T13:11:26.603Z,25.14
2023-09-06T13:16:27.693Z,25.07
2023-09-06T13:21:29.852Z,25.19
2023-09-06T13:26:31.069Z,25.23
2023-09-06T13:31:32.004Z,25.63
2023-09-06T13:36:36.781Z,25.16
2023-09-06T13:41:38.162Z,25.25
2023-09-06T13:46:39.163Z,25.61
2023-09-06T13:51:40.068Z,26.01
2023-09-06T13:56:41.858Z,25.65
2023-09-06T14:01:43.130Z,25.78
2023-09-06T14:06:44.167Z,25.94
2023-09-06T14:11:45.779Z,25.74
2023-09-06T14:16:46.627Z,26.03
2023-09-06T14:21:47.629Z,25.86
2023-09-06T14:26:48.565Z,25.85
2023-09-06T14:31:49.785Z,26.05
2023-09-06T14:36:51.032Z,25.98
2023-09-06T14:41:52.108Z,26.19
2023-09-06T14:46:53.120Z,25.89
2023-09-06T14:51:54.335Z,26.39
2023-09-06T14:56:58.307Z,26.21
2023-09-06T15:01:59.299Z,26.05
2023-09-06T15:07:01.023Z,26.24
2023-09-06T15:12:03.328Z,26.13
2023-09-06T15:17:04.628Z,25.91
2023-09-06T15:22:05.912Z,26.17
2023-09-06T15:27:06.798Z,25.85
2023-09-06T15:32:07.577Z,25.59
2023-09-06T15:37:09.364Z,25.69
2023-09-06T15:42:10.180Z,25.55
2023-09-06T15:47:11.231Z,25.59
2023-09-06T15:52:12.636Z,25.39
2023-09-06T15:57:13.757Z,25.26
2023-09-06T16:02:14.815Z,25.20
2023-09-06T16:07:16.062Z,25.20
2023-09-06T16:12:17.044Z,25.22
2023-09-06T16:17:18.531Z,25.34
2023-09-06T16:22:21.857Z,25.11
2023-09-06T16:27:23.233Z,25.05
2023-09-06T16:32:24.203Z,24.92
2023-09-06T16:37:25.224Z,24.95
2023-09-06T16:42:26.145Z,24.96
2023-09-06T16:47:26.953Z,24.90
2023-09-06T16:52:27.783Z,24.79
2023-09-06T16:57:28.593Z,24.76
2023-09-06T17:02:29.598Z,24.59
2023-09-06T17:07:32.899Z,24.58
2023-09-06T17:12:34.912Z,24.54
2023-09-06T17:17:35.847Z,24.49
2023-09-06T17:22:37.778Z,24.47
2023-09-06T17:27:42.105Z,24.32
2023-09-06T17:33:15.204Z,24.11
2023-09-06T17:38:17.666Z,23.76
2023-09-06T17:43:20.949Z,23.64
2023-09-06T17:48:22.960Z,23.28
2023-09-06T17:53:29.991Z,23.15
2023-09-06T17:58:31.149Z,22.87
2023-09-06T18:03:33.127Z,22.62
2023-09-06T18:08:35.326Z,22.41
2023-09-06T18:13:40.938Z,22.26
2023-09-06T18:18:43.026Z,22.01
2023-09-06T18:23:45.375Z,21.94
2023-09-06T18:28:46.250Z,21.68
2023-09-06T18:33:47.080Z,21.51
2023-09-06T18:38:48.513Z,21.41
2023-09-06T18:43:49.419Z,21.13
2023-09-06T18:48:51.939Z,20.94
2023-09-06T18:53:52.715Z,20.91
2023-09-06T18:58:53.631Z,20.73
2023-09-06T19:03:54.568Z,20.62
2023-09-06T19:08:56.924Z,20.50
2023-09-06T19:13:58.234Z,20.43
2023-09-06T19:18:59.110Z,20.31
2023-09-06T19:23:59.901Z,20.12
2023-09-06T19:29:01.205Z,20.09
2023-09-06T19:34:03.943Z,20.04
2023-09-06T19:39:04.924Z,20.01
2023-09-06T19:44:06.931Z,20.15
2023-09-06T19:49:07.946Z,20.06
2023-09-06T19:54:09.029Z,20.09
2023-09-06T19:59:09.936Z,20.11
2023-09-06T20:04:10.996Z,19.99
2023-09-06T20:09:13.243Z,19.87
2023-09-06T20:14:14.846Z,19.67
2023-09-06T20:19:15.685Z,19.65
2023-09-06T20:24:17.042Z,19.57
2023-09-06T20:29:18.079Z,19.55
2023-09-06T20:34:19.408Z,19.52
2023-09-06T20:39:20.640Z,19.49
2023-09-06T20:44:22.175Z,19.41
2023-09-06T20:49:23.393Z,19.48
2023-09-06T20:54:24.270Z,19.55
2023-09-06T20:59:25.117Z,19.76
2023-09-06T21:04:26.211Z,19.89
2023-09-06T21:09:27.282Z,19.99
2023-09-06T21:14:28.696Z,20.05
2023-09-06T21:19:29.516Z,20.14
2023-09-06T21:24:31.149Z,20.24
2023-09-06T21:29:32.110Z,20.29
2023-09-06T21:34:33.026Z,20.15
2023-09-06T21:39:34.172Z,20.04
2023-09-06T21:44:37.903Z,19.96
2023-09-06T21:49:38.784Z,20.05
2023-09-06T21:54:39.692Z,19.84
2023-09-06T21:59:40.556Z,19.90
2023-09-06T22:04:41.666Z,19.81
2023-09-06T22:10:01.522Z,19.67
2023-09-06T22:15:20.921Z,19.52
2023-09-06T22:20:23.603Z,19.53
2023-09-06T22:25:24.437Z,19.56
2023-09-06T22:30:25.284Z,19.56
2023-09-06T22:35:28.361Z,19.39
2023-09-06T22:40:29.296Z,19.43
2023-09-06T22:45:30.186Z,19.44
2023-09-06T22:50:30.977Z,19.34
2023-09-06T22:55:31.956Z,19.21
2023-09-06T23:00:35.990Z,19.07
2023-09-06T23:05:37.203Z,19.01
2023-09-06T23:10:39.064Z,18.77
2023-09-06T23:15:39.960Z,18.52
2023-09-06T23:20:42.607Z,18.39
2023-09-06T23:25:50.485Z,18.16
2023-09-06T23:30:55.643Z,18.00
2023-09-06T23:35:56.481Z,18.00
2023-09-06T23:40:57.851Z,17.84
2023-09-06T23:45:58.824Z,17.77
2023-09-06T23:50:59.889Z,17.69
2023-09-06T23:56:04.051Z,17.69
